sensor_id;sensor_type;location;lat;lon;timestamp;P1;durP1;ratioP1;P2;durP2;ratioP2
71648;SDS011;70112;45.624;11.760;2024-02-23T00:00:23;41.80;;;30.80;;
71648;SDS011;70112;45.624;11.760;2024-02-23T00:02:52;43.60;;;31.10;;
71648;SDS011;70112;45.624;11.760;2024-02-23T00:05:59;39.70;;;30.50;;
71648;SDS011;70112;45.624;11.760;2024-02-23T00:08:27;40.80;;;28.90;;
71648;SDS011;70112;45.624;11.760;2024-02-23T00:10:56;40.40;;;29.80;;
71648;SDS011;70112;45.624;11.760;2024-02-23T00:14:05;37.10;;;27.60;;
71648;SDS011;70112;45.624;11.760;2024-02-23T00:16:42;39.10;;;28.40;;
71648;SDS011;70112;45.624;11.760;2024-02-23T00:19:08;37.60;;;28.10;;
71648;SDS011;70112;45.624;11.760;2024-02-23T00:21:40;37.50;;;27.90;;
71648;SDS011;70112;45.624;11.760;2024-02-23T00:24:20;39.20;;;29.70;;
71648;SDS011;70112;45.624;11.760;2024-02-23T00:26:54;34.20;;;27.80;;
71648;SDS011;70112;45.624;11.760;2024-02-23T00:29:23;38.30;;;27.60;;
71648;SDS011;70112;45.624;11.760;2024-02-23T00:31:51;37.70;;;28.30;;
71648;SDS011;70112;45.624;11.760;2024-02-23T00:34:17;38.90;;;27.80;;
71648;SDS011;70112;45.624;11.760;2024-02-23T00:36:43;36.60;;;27.30;;
71648;SDS011;70112;45.624;11.760;2024-02-23T00:39:12;39.90;;;29.40;;
71648;SDS011;70112;45.624;11.760;2024-02-23T00:41:37;36.90;;;27.60;;
71648;SDS011;70112;45.624;11.760;2024-02-23T00:44:06;35.80;;;27.20;;
71648;SDS011;70112;45.624;11.760;2024-02-23T00:46:37;33.30;;;26.50;;
71648;SDS011;70112;45.624;11.760;2024-02-23T00:49:04;36.50;;;27.00;;
71648;SDS011;70112;45.624;11.760;2024-02-23T00:51:31;35.20;;;26.20;;
71648;SDS011;70112;45.624;11.760;2024-02-23T00:53:56;34.00;;;26.10;;
71648;SDS011;70112;45.624;11.760;2024-02-23T00:56:22;34.50;;;26.00;;
71648;SDS011;70112;45.624;11.760;2024-02-23T00:58:52;31.60;;;25.40;;
71648;SDS011;70112;45.624;11.760;2024-02-23T01:01:49;29.90;;;24.00;;
71648;SDS011;70112;45.624;11.760;2024-02-23T01:04:15;31.40;;;24.60;;
71648;SDS011;70112;45.624;11.760;2024-02-23T01:06:44;31.60;;;23.40;;
71648;SDS011;70112;45.624;11.760;2024-02-23T01:09:09;30.40;;;24.50;;
71648;SDS011;70112;45.624;11.760;2024-02-23T01:11:35;28.60;;;21.80;;
71648;SDS011;70112;45.624;11.760;2024-02-23T01:14:01;29.60;;;21.60;;
71648;SDS011;70112;45.624;11.760;2024-02-23T01:16:27;26.20;;;19.80;;
71648;SDS011;70112;45.624;11.760;2024-02-23T01:18:53;26.20;;;20.60;;
71648;SDS011;70112;45.624;11.760;2024-02-23T01:21:18;30.50;;;21.30;;
71648;SDS011;70112;45.624;11.760;2024-02-23T01:23:49;25.10;;;19.70;;
71648;SDS011;70112;45.624;11.760;2024-02-23T01:26:15;25.80;;;20.10;;
71648;SDS011;70112;45.624;11.760;2024-02-23T01:29:01;23.10;;;18.60;;
71648;SDS011;70112;45.624;11.760;2024-02-23T01:31:32;26.30;;;18.80;;
71648;SDS011;70112;45.624;11.760;2024-02-23T01:33:57;24.10;;;17.80;;
71648;SDS011;70112;45.624;11.760;2024-02-23T01:36:23;22.80;;;17.80;;
71648;SDS011;70112;45.624;11.760;2024-02-23T01:39:12;24.40;;;17.70;;
71648;SDS011;70112;45.624;11.760;2024-02-23T01:41:37;20.90;;;15.90;;
71648;SDS011;70112;45.624;11.760;2024-02-23T01:44:06;19.30;;;15.70;;
71648;SDS011;70112;45.624;11.760;2024-02-23T01:46:32;19.70;;;15.60;;
71648;SDS011;70112;45.624;11.760;2024-02-23T01:48:58;19.10;;;14.80;;
71648;SDS011;70112;45.624;11.760;2024-02-23T01:51:33;19.30;;;15.10;;
71648;SDS011;70112;45.624;11.760;2024-02-23T01:53:59;20.00;;;15.30;;
71648;SDS011;70112;45.624;11.760;2024-02-23T01:56:26;19.00;;;14.60;;
71648;SDS011;70112;45.624;11.760;2024-02-23T01:58:53;19.90;;;15.90;;
71648;SDS011;70112;45.624;11.760;2024-02-23T02:01:20;19.60;;;15.00;;
71648;SDS011;70112;45.624;11.760;2024-02-23T02:04:10;18.30;;;15.00;;
71648;SDS011;70112;45.624;11.760;2024-02-23T02:06:56;22.90;;;18.40;;
71648;SDS011;70112;45.624;11.760;2024-02-23T02:09:22;20.70;;;17.20;;
71648;SDS011;70112;45.624;11.760;2024-02-23T02:11:53;20.00;;;16.10;;
71648;SDS011;70112;45.624;11.760;2024-02-23T02:14:19;18.30;;;14.90;;
71648;SDS011;70112;45.624;11.760;2024-02-23T02:16:58;19.50;;;15.80;;
71648;SDS011;70112;45.624;11.760;2024-02-23T02:19:23;19.60;;;15.60;;
71648;SDS011;70112;45.624;11.760;2024-02-23T02:21:51;17.70;;;14.70;;
71648;SDS011;70112;45.624;11.760;2024-02-23T02:24:17;18.50;;;14.50;;
71648;SDS011;70112;45.624;11.760;2024-02-23T02:26:43;18.00;;;13.20;;
71648;SDS011;70112;45.624;11.760;2024-02-23T02:29:13;15.00;;;12.50;;
71648;SDS011;70112;45.624;11.760;2024-02-23T02:31:59;16.30;;;13.20;;
71648;SDS011;70112;45.624;11.760;2024-02-23T02:34:25;13.70;;;11.80;;
71648;SDS011;70112;45.624;11.760;2024-02-23T02:39:51;15.00;;;12.40;;
71648;SDS011;70112;45.624;11.760;2024-02-23T02:42:40;13.50;;;11.60;;
71648;SDS011;70112;45.624;11.760;2024-02-23T02:45:18;13.30;;;11.00;;
71648;SDS011;70112;45.624;11.760;2024-02-23T02:47:48;14.10;;;10.70;;
71648;SDS011;70112;45.624;11.760;2024-02-23T02:50:13;13.60;;;10.90;;
71648;SDS011;70112;45.624;11.760;2024-02-23T02:52:45;13.80;;;10.70;;
71648;SDS011;70112;45.624;11.760;2024-02-23T02:55:13;12.80;;;10.90;;
71648;SDS011;70112;45.624;11.760;2024-02-23T02:57:41;12.10;;;10.00;;
71648;SDS011;70112;45.624;11.760;2024-02-23T03:00:14;12.40;;;10.40;;
71648;SDS011;70112;45.624;11.760;2024-02-23T03:02:43;12.60;;;10.00;;
71648;SDS011;70112;45.624;11.760;2024-02-23T03:05:09;12.10;;;9.90;;
71648;SDS011;70112;45.624;11.760;2024-02-23T03:07:55;10.80;;;9.00;;
71648;SDS011;70112;45.624;11.760;2024-02-23T03:10:21;11.20;;;9.10;;
71648;SDS011;70112;45.624;11.760;2024-02-23T03:12:57;11.10;;;9.60;;
71648;SDS011;70112;45.624;11.760;2024-02-23T03:15:28;13.00;;;10.50;;
71648;SDS011;70112;45.624;11.760;2024-02-23T03:18:02;12.80;;;10.30;;
71648;SDS011;70112;45.624;11.760;2024-02-23T03:20:27;11.10;;;9.40;;
71648;SDS011;70112;45.624;11.760;2024-02-23T03:23:07;12.70;;;10.10;;
71648;SDS011;70112;45.624;11.760;2024-02-23T03:25:35;9.50;;;8.50;;
71648;SDS011;70112;45.624;11.760;2024-02-23T03:28:04;10.70;;;9.00;;
71648;SDS011;70112;45.624;11.760;2024-02-23T03:33:37;8.50;;;7.60;;
71648;SDS011;70112;45.624;11.760;2024-02-23T03:36:06;9.90;;;7.60;;
71648;SDS011;70112;45.624;11.760;2024-02-23T03:38:37;9.30;;;7.10;;
71648;SDS011;70112;45.624;11.760;2024-02-23T03:41:10;8.80;;;7.40;;
71648;SDS011;70112;45.624;11.760;2024-02-23T03:43:36;7.60;;;6.80;;
71648;SDS011;70112;45.624;11.760;2024-02-23T03:49:29;7.90;;;6.30;;
71648;SDS011;70112;45.624;11.760;2024-02-23T03:52:36;7.40;;;5.90;;
71648;SDS011;70112;45.624;11.760;2024-02-23T03:55:01;8.30;;;6.00;;
71648;SDS011;70112;45.624;11.760;2024-02-23T03:57:29;6.80;;;6.10;;
71648;SDS011;70112;45.624;11.760;2024-02-23T03:59:55;6.00;;;5.40;;
71648;SDS011;70112;45.624;11.760;2024-02-23T04:02:22;7.60;;;5.60;;
71648;SDS011;70112;45.624;11.760;2024-02-23T04:04:48;6.20;;;5.60;;
71648;SDS011;70112;45.624;11.760;2024-02-23T04:10:36;6.00;;;5.40;;
71648;SDS011;70112;45.624;11.760;2024-02-23T04:13:30;7.00;;;5.30;;
71648;SDS011;70112;45.624;11.760;2024-02-23T04:16:04;5.80;;;5.00;;
71648;SDS011;70112;45.624;11.760;2024-02-23T04:18:30;5.60;;;4.60;;
71648;SDS011;70112;45.624;11.760;2024-02-23T04:20:57;5.60;;;4.60;;
71648;SDS011;70112;45.624;11.760;2024-02-23T04:23:25;4.80;;;4.40;;
71648;SDS011;70112;45.624;11.760;2024-02-23T04:25:51;4.90;;;4.30;;
71648;SDS011;70112;45.624;11.760;2024-02-23T04:28:19;7.30;;;5.40;;
71648;SDS011;70112;45.624;11.760;2024-02-23T04:30:53;5.40;;;4.60;;
71648;SDS011;70112;45.624;11.760;2024-02-23T04:33:19;4.20;;;3.80;;
71648;SDS011;70112;45.624;11.760;2024-02-23T04:36:08;5.60;;;3.80;;
71648;SDS011;70112;45.624;11.760;2024-02-23T04:38:54;4.70;;;3.70;;
71648;SDS011;70112;45.624;11.760;2024-02-23T04:41:20;6.70;;;4.40;;
71648;SDS011;70112;45.624;11.760;2024-02-23T04:43:49;5.40;;;3.30;;
71648;SDS011;70112;45.624;11.760;2024-02-23T04:46:31;5.00;;;3.70;;
71648;SDS011;70112;45.624;11.760;2024-02-23T04:52:14;4.60;;;3.60;;
71648;SDS011;70112;45.624;11.760;2024-02-23T04:55:12;3.70;;;3.30;;
71648;SDS011;70112;45.624;11.760;2024-02-23T04:57:59;3.70;;;3.40;;
71648;SDS011;70112;45.624;11.760;2024-02-23T05:00:27;5.00;;;3.10;;
71648;SDS011;70112;45.624;11.760;2024-02-23T05:03:00;6.10;;;3.40;;
71648;SDS011;70112;45.624;11.760;2024-02-23T05:05:32;4.20;;;3.20;;
71648;SDS011;70112;45.624;11.760;2024-02-23T05:08:06;4.00;;;3.40;;
71648;SDS011;70112;45.624;11.760;2024-02-23T05:10:35;6.30;;;3.50;;
71648;SDS011;70112;45.624;11.760;2024-02-23T05:13:18;5.10;;;3.70;;
71648;SDS011;70112;45.624;11.760;2024-02-23T05:21:29;6.50;;;3.80;;
71648;SDS011;70112;45.624;11.760;2024-02-23T05:24:05;7.00;;;4.00;;
71648;SDS011;70112;45.624;11.760;2024-02-23T05:26:31;5.90;;;3.70;;
71648;SDS011;70112;45.624;11.760;2024-02-23T05:28:59;6.80;;;4.10;;
71648;SDS011;70112;45.624;11.760;2024-02-23T05:31:47;5.70;;;3.70;;
71648;SDS011;70112;45.624;11.760;2024-02-23T05:34:14;6.40;;;3.50;;
71648;SDS011;70112;45.624;11.760;2024-02-23T05:36:40;5.30;;;3.50;;
71648;SDS011;70112;45.624;11.760;2024-02-23T05:39:06;6.00;;;3.70;;
71648;SDS011;70112;45.624;11.760;2024-02-23T05:41:38;5.70;;;3.90;;
71648;SDS011;70112;45.624;11.760;2024-02-23T05:44:05;6.00;;;4.20;;
71648;SDS011;70112;45.624;11.760;2024-02-23T05:46:42;5.60;;;4.10;;
71648;SDS011;70112;45.624;11.760;2024-02-23T05:49:08;5.60;;;4.50;;
71648;SDS011;70112;45.624;11.760;2024-02-23T05:51:37;6.30;;;4.30;;
71648;SDS011;70112;45.624;11.760;2024-02-23T05:54:15;8.00;;;5.10;;
71648;SDS011;70112;45.624;11.760;2024-02-23T05:56:40;9.30;;;4.80;;
71648;SDS011;70112;45.624;11.760;2024-02-23T05:59:06;9.50;;;5.10;;
71648;SDS011;70112;45.624;11.760;2024-02-23T06:01:34;7.70;;;4.90;;
71648;SDS011;70112;45.624;11.760;2024-02-23T06:04:03;9.80;;;4.60;;
71648;SDS011;70112;45.624;11.760;2024-02-23T06:06:41;6.10;;;4.90;;
71648;SDS011;70112;45.624;11.760;2024-02-23T06:09:42;7.40;;;4.20;;
71648;SDS011;70112;45.624;11.760;2024-02-23T06:12:13;7.80;;;5.10;;
71648;SDS011;70112;45.624;11.760;2024-02-23T06:14:39;6.70;;;4.80;;
71648;SDS011;70112;45.624;11.760;2024-02-23T06:17:05;7.30;;;5.20;;
71648;SDS011;70112;45.624;11.760;2024-02-23T06:19:33;10.10;;;5.90;;
71648;SDS011;70112;45.624;11.760;2024-02-23T06:22:01;10.10;;;5.60;;
71648;SDS011;70112;45.624;11.760;2024-02-23T06:24:41;10.60;;;5.40;;
71648;SDS011;70112;45.624;11.760;2024-02-23T06:27:13;8.20;;;5.20;;
71648;SDS011;70112;45.624;11.760;2024-02-23T06:29:38;9.00;;;5.00;;
71648;SDS011;70112;45.624;11.760;2024-02-23T06:32:05;9.20;;;5.90;;
71648;SDS011;70112;45.624;11.760;2024-02-23T06:34:31;8.50;;;5.20;;
71648;SDS011;70112;45.624;11.760;2024-02-23T06:37:20;10.40;;;5.60;;
71648;SDS011;70112;45.624;11.760;2024-02-23T06:40:02;7.60;;;5.10;;
71648;SDS011;70112;45.624;11.760;2024-02-23T06:42:32;8.50;;;5.30;;
71648;SDS011;70112;45.624;11.760;2024-02-23T06:45:10;9.50;;;5.20;;
71648;SDS011;70112;45.624;11.760;2024-02-23T06:47:45;9.00;;;5.50;;
71648;SDS011;70112;45.624;11.760;2024-02-23T06:50:29;10.90;;;5.70;;
71648;SDS011;70112;45.624;11.760;2024-02-23T06:53:18;9.10;;;5.10;;
71648;SDS011;70112;45.624;11.760;2024-02-23T06:55:47;8.70;;;4.60;;
71648;SDS011;70112;45.624;11.760;2024-02-23T07:00:57;10.00;;;5.20;;
71648;SDS011;70112;45.624;11.760;2024-02-23T07:03:31;7.30;;;5.50;;
71648;SDS011;70112;45.624;11.760;2024-02-23T07:06:30;6.70;;;4.80;;
71648;SDS011;70112;45.624;11.760;2024-02-23T07:08:57;8.40;;;4.90;;
71648;SDS011;70112;45.624;11.760;2024-02-23T07:33:40;8.40;;;5.50;;
71648;SDS011;70112;45.624;11.760;2024-02-23T07:36:16;11.80;;;6.60;;
71648;SDS011;70112;45.624;11.760;2024-02-23T07:38:48;12.50;;;6.90;;
71648;SDS011;70112;45.624;11.760;2024-02-23T07:41:17;15.70;;;6.70;;
71648;SDS011;70112;45.624;11.760;2024-02-23T07:43:43;15.90;;;7.60;;
71648;SDS011;70112;45.624;11.760;2024-02-23T07:46:17;8.90;;;5.70;;
71648;SDS011;70112;45.624;11.760;2024-02-23T07:48:48;9.60;;;7.00;;
71648;SDS011;70112;45.624;11.760;2024-02-23T07:51:16;12.90;;;6.20;;
71648;SDS011;70112;45.624;11.760;2024-02-23T07:53:42;9.20;;;7.10;;
71648;SDS011;70112;45.624;11.760;2024-02-23T07:56:08;10.50;;;6.00;;
71648;SDS011;70112;45.624;11.760;2024-02-23T07:58:33;9.50;;;5.60;;
71648;SDS011;70112;45.624;11.760;2024-02-23T08:00:59;9.60;;;5.40;;
71648;SDS011;70112;45.624;11.760;2024-02-23T08:03:25;12.80;;;5.80;;
71648;SDS011;70112;45.624;11.760;2024-02-23T08:05:51;10.60;;;5.80;;
71648;SDS011;70112;45.624;11.760;2024-02-23T08:08:17;8.30;;;5.90;;
71648;SDS011;70112;45.624;11.760;2024-02-23T08:10:43;13.90;;;6.10;;
71648;SDS011;70112;45.624;11.760;2024-02-23T08:13:12;9.10;;;5.60;;
71648;SDS011;70112;45.624;11.760;2024-02-23T08:15:38;10.70;;;5.90;;
71648;SDS011;70112;45.624;11.760;2024-02-23T08:18:04;8.70;;;5.80;;
71648;SDS011;70112;45.624;11.760;2024-02-23T08:20:30;11.10;;;6.00;;
71648;SDS011;70112;45.624;11.760;2024-02-23T08:22:55;13.00;;;6.50;;
71648;SDS011;70112;45.624;11.760;2024-02-23T08:25:21;8.20;;;5.10;;
71648;SDS011;70112;45.624;11.760;2024-02-23T08:27:49;11.50;;;5.70;;
71648;SDS011;70112;45.624;11.760;2024-02-23T08:30:15;8.30;;;5.60;;
71648;SDS011;70112;45.624;11.760;2024-02-23T08:32:43;10.10;;;5.00;;
71648;SDS011;70112;45.624;11.760;2024-02-23T08:35:09;12.60;;;6.40;;
71648;SDS011;70112;45.624;11.760;2024-02-23T08:37:34;10.50;;;5.70;;
71648;SDS011;70112;45.624;11.760;2024-02-23T08:40:00;7.50;;;5.60;;
71648;SDS011;70112;45.624;11.760;2024-02-23T08:42:32;9.70;;;5.70;;
71648;SDS011;70112;45.624;11.760;2024-02-23T08:44:57;13.90;;;5.80;;
71648;SDS011;70112;45.624;11.760;2024-02-23T08:47:23;6.30;;;4.70;;
71648;SDS011;70112;45.624;11.760;2024-02-23T08:49:50;12.00;;;6.00;;
71648;SDS011;70112;45.624;11.760;2024-02-23T08:52:15;7.80;;;5.40;;
71648;SDS011;70112;45.624;11.760;2024-02-23T08:54:41;12.30;;;5.50;;
71648;SDS011;70112;45.624;11.760;2024-02-23T08:57:06;9.50;;;5.90;;
71648;SDS011;70112;45.624;11.760;2024-02-23T08:59:32;9.90;;;5.60;;
71648;SDS011;70112;45.624;11.760;2024-02-23T09:01:58;9.20;;;5.30;;
71648;SDS011;70112;45.624;11.760;2024-02-23T09:04:23;8.20;;;5.00;;
71648;SDS011;70112;45.624;11.760;2024-02-23T09:06:49;11.50;;;6.80;;
71648;SDS011;70112;45.624;11.760;2024-02-23T09:09:16;10.70;;;6.00;;
71648;SDS011;70112;45.624;11.760;2024-02-23T09:11:42;11.30;;;6.80;;
71648;SDS011;70112;45.624;11.760;2024-02-23T09:14:08;7.40;;;5.90;;
71648;SDS011;70112;45.624;11.760;2024-02-23T09:16:34;8.60;;;5.30;;
71648;SDS011;70112;45.624;11.760;2024-02-23T09:19:00;9.90;;;6.00;;
71648;SDS011;70112;45.624;11.760;2024-02-23T09:21:34;10.40;;;6.30;;
71648;SDS011;70112;45.624;11.760;2024-02-23T09:24:25;10.70;;;5.70;;
71648;SDS011;70112;45.624;11.760;2024-02-23T09:26:54;10.70;;;6.10;;
71648;SDS011;70112;45.624;11.760;2024-02-23T09:29:19;12.00;;;6.30;;
71648;SDS011;70112;45.624;11.760;2024-02-23T09:31:47;9.60;;;6.50;;
71648;SDS011;70112;45.624;11.760;2024-02-23T09:34:17;10.20;;;6.10;;
71648;SDS011;70112;45.624;11.760;2024-02-23T09:36:52;14.00;;;6.00;;
71648;SDS011;70112;45.624;11.760;2024-02-23T09:39:18;13.50;;;6.40;;
71648;SDS011;70112;45.624;11.760;2024-02-23T09:41:45;8.90;;;6.10;;
71648;SDS011;70112;45.624;11.760;2024-02-23T09:44:12;15.10;;;6.10;;
71648;SDS011;70112;45.624;11.760;2024-02-23T09:46:39;10.30;;;6.50;;
71648;SDS011;70112;45.624;11.760;2024-02-23T09:49:07;8.60;;;5.70;;
71648;SDS011;70112;45.624;11.760;2024-02-23T09:51:34;12.30;;;6.00;;
71648;SDS011;70112;45.624;11.760;2024-02-23T09:54:07;10.50;;;6.10;;
71648;SDS011;70112;45.624;11.760;2024-02-23T09:56:33;9.40;;;5.50;;
71648;SDS011;70112;45.624;11.760;2024-02-23T09:59:02;11.50;;;6.70;;
71648;SDS011;70112;45.624;11.760;2024-02-23T10:01:30;14.80;;;9.10;;
71648;SDS011;70112;45.624;11.760;2024-02-23T10:04:00;9.30;;;6.50;;
71648;SDS011;70112;45.624;11.760;2024-02-23T10:06:27;12.80;;;7.00;;
71648;SDS011;70112;45.624;11.760;2024-02-23T10:08:53;11.80;;;7.20;;
71648;SDS011;70112;45.624;11.760;2024-02-23T10:11:22;15.90;;;9.60;;
71648;SDS011;70112;45.624;11.760;2024-02-23T10:13:49;18.20;;;11.30;;
71648;SDS011;70112;45.624;11.760;2024-02-23T10:16:21;13.00;;;8.50;;
71648;SDS011;70112;45.624;11.760;2024-02-23T10:19:06;12.60;;;6.90;;
71648;SDS011;70112;45.624;11.760;2024-02-23T10:21:35;10.20;;;6.50;;
71648;SDS011;70112;45.624;11.760;2024-02-23T10:24:11;11.20;;;5.90;;
71648;SDS011;70112;45.624;11.760;2024-02-23T10:26:40;12.20;;;6.90;;
71648;SDS011;70112;45.624;11.760;2024-02-23T10:29:16;9.60;;;5.90;;
71648;SDS011;70112;45.624;11.760;2024-02-23T10:31:43;9.70;;;6.20;;
71648;SDS011;70112;45.624;11.760;2024-02-23T10:34:14;10.60;;;6.30;;
71648;SDS011;70112;45.624;11.760;2024-02-23T10:36:43;11.30;;;6.40;;
71648;SDS011;70112;45.624;11.760;2024-02-23T10:39:11;8.10;;;6.20;;
71648;SDS011;70112;45.624;11.760;2024-02-23T10:41:46;9.30;;;6.10;;
71648;SDS011;70112;45.624;11.760;2024-02-23T10:44:16;10.10;;;6.80;;
71648;SDS011;70112;45.624;11.760;2024-02-23T10:46:44;7.80;;;5.90;;
71648;SDS011;70112;45.624;11.760;2024-02-23T10:49:14;8.80;;;5.50;;
71648;SDS011;70112;45.624;11.760;2024-02-23T10:51:41;10.00;;;5.40;;
71648;SDS011;70112;45.624;11.760;2024-02-23T10:54:08;12.20;;;6.10;;
71648;SDS011;70112;45.624;11.760;2024-02-23T10:56:47;6.70;;;5.10;;
71648;SDS011;70112;45.624;11.760;2024-02-23T10:59:26;8.50;;;6.20;;
71648;SDS011;70112;45.624;11.760;2024-02-23T11:01:54;11.60;;;7.20;;
71648;SDS011;70112;45.624;11.760;2024-02-23T11:04:23;9.80;;;7.20;;
71648;SDS011;70112;45.624;11.760;2024-02-23T11:06:54;8.00;;;5.90;;
71648;SDS011;70112;45.624;11.760;2024-02-23T11:09:24;8.20;;;6.20;;
71648;SDS011;70112;45.624;11.760;2024-02-23T11:11:53;8.50;;;5.30;;
71648;SDS011;70112;45.624;11.760;2024-02-23T11:14:39;6.80;;;5.60;;
71648;SDS011;70112;45.624;11.760;2024-02-23T11:17:05;8.30;;;5.90;;
71648;SDS011;70112;45.624;11.760;2024-02-23T11:19:35;8.70;;;6.40;;
71648;SDS011;70112;45.624;11.760;2024-02-23T11:22:03;8.00;;;6.10;;
71648;SDS011;70112;45.624;11.760;2024-02-23T11:24:32;8.50;;;6.70;;
71648;SDS011;70112;45.624;11.760;2024-02-23T11:26:58;8.00;;;6.00;;
71648;SDS011;70112;45.624;11.760;2024-02-23T11:29:31;8.70;;;5.50;;
71648;SDS011;70112;45.624;11.760;2024-02-23T11:32:11;7.50;;;6.00;;
71648;SDS011;70112;45.624;11.760;2024-02-23T11:34:40;9.50;;;5.70;;
71648;SDS011;70112;45.624;11.760;2024-02-23T11:37:11;9.80;;;6.60;;
71648;SDS011;70112;45.624;11.760;2024-02-23T11:39:38;6.20;;;5.30;;
71648;SDS011;70112;45.624;11.760;2024-02-23T11:42:06;9.10;;;5.70;;
71648;SDS011;70112;45.624;11.760;2024-02-23T11:44:31;7.40;;;5.30;;
71648;SDS011;70112;45.624;11.760;2024-02-23T11:47:07;7.30;;;5.30;;
71648;SDS011;70112;45.624;11.760;2024-02-23T11:49:33;6.00;;;4.60;;
71648;SDS011;70112;45.624;11.760;2024-02-23T11:51:59;7.40;;;4.70;;
71648;SDS011;70112;45.624;11.760;2024-02-23T11:54:45;7.80;;;5.20;;
71648;SDS011;70112;45.624;11.760;2024-02-23T11:57:11;7.10;;;5.70;;
71648;SDS011;70112;45.624;11.760;2024-02-23T11:59:37;9.10;;;6.10;;
71648;SDS011;70112;45.624;11.760;2024-02-23T12:02:03;7.30;;;6.00;;
71648;SDS011;70112;45.624;11.760;2024-02-23T12:04:28;6.70;;;5.20;;
71648;SDS011;70112;45.624;11.760;2024-02-23T12:06:55;7.50;;;5.40;;
71648;SDS011;70112;45.624;11.760;2024-02-23T12:09:24;6.10;;;5.20;;
71648;SDS011;70112;45.624;11.760;2024-02-23T12:11:50;7.60;;;5.80;;
71648;SDS011;70112;45.624;11.760;2024-02-23T12:14:16;8.60;;;6.00;;
71648;SDS011;70112;45.624;11.760;2024-02-23T12:16:43;7.50;;;5.40;;
71648;SDS011;70112;45.624;11.760;2024-02-23T12:19:09;7.50;;;6.20;;
71648;SDS011;70112;45.624;11.760;2024-02-23T12:21:34;9.60;;;6.30;;
71648;SDS011;70112;45.624;11.760;2024-02-23T12:24:06;11.00;;;7.50;;
71648;SDS011;70112;45.624;11.760;2024-02-23T12:26:37;7.20;;;6.00;;
71648;SDS011;70112;45.624;11.760;2024-02-23T12:29:06;7.50;;;6.30;;
71648;SDS011;70112;45.624;11.760;2024-02-23T12:31:45;7.20;;;5.50;;
71648;SDS011;70112;45.624;11.760;2024-02-23T12:34:11;8.90;;;6.30;;
71648;SDS011;70112;45.624;11.760;2024-02-23T12:36:40;7.40;;;6.30;;
71648;SDS011;70112;45.624;11.760;2024-02-23T12:39:06;10.20;;;6.40;;
71648;SDS011;70112;45.624;11.760;2024-02-23T12:41:31;9.00;;;5.70;;
71648;SDS011;70112;45.624;11.760;2024-02-23T12:43:58;9.00;;;6.40;;
71648;SDS011;70112;45.624;11.760;2024-02-23T12:46:24;9.30;;;6.30;;
71648;SDS011;70112;45.624;11.760;2024-02-23T12:48:53;8.80;;;6.00;;
71648;SDS011;70112;45.624;11.760;2024-02-23T12:51:28;6.30;;;5.50;;
71648;SDS011;70112;45.624;11.760;2024-02-23T12:53:56;6.90;;;5.40;;
71648;SDS011;70112;45.624;11.760;2024-02-23T12:56:24;6.20;;;5.40;;
71648;SDS011;70112;45.624;11.760;2024-02-23T12:58:50;9.70;;;5.40;;
71648;SDS011;70112;45.624;11.760;2024-02-23T13:01:32;8.60;;;5.50;;
71648;SDS011;70112;45.624;11.760;2024-02-23T13:04:01;8.20;;;6.20;;
71648;SDS011;70112;45.624;11.760;2024-02-23T13:06:27;8.00;;;6.30;;
71648;SDS011;70112;45.624;11.760;2024-02-23T13:08:53;7.90;;;5.80;;
71648;SDS011;70112;45.624;11.760;2024-02-23T13:11:18;8.00;;;6.70;;
71648;SDS011;70112;45.624;11.760;2024-02-23T13:13:44;6.90;;;5.40;;
71648;SDS011;70112;45.624;11.760;2024-02-23T13:16:21;7.10;;;6.20;;
71648;SDS011;70112;45.624;11.760;2024-02-23T13:18:47;8.20;;;6.40;;
71648;SDS011;70112;45.624;11.760;2024-02-23T13:21:13;9.10;;;7.80;;
71648;SDS011;70112;45.624;11.760;2024-02-23T13:23:39;8.90;;;7.40;;
71648;SDS011;70112;45.624;11.760;2024-02-23T13:26:16;8.30;;;6.50;;
71648;SDS011;70112;45.624;11.760;2024-02-23T13:28:43;10.70;;;6.70;;
71648;SDS011;70112;45.624;11.760;2024-02-23T13:31:09;13.70;;;11.10;;
71648;SDS011;70112;45.624;11.760;2024-02-23T13:33:40;16.50;;;14.70;;
71648;SDS011;70112;45.624;11.760;2024-02-23T13:36:06;12.00;;;9.30;;
71648;SDS011;70112;45.624;11.760;2024-02-23T13:38:34;9.60;;;7.20;;
71648;SDS011;70112;45.624;11.760;2024-02-23T13:41:04;9.50;;;6.40;;
71648;SDS011;70112;45.624;11.760;2024-02-23T13:43:30;10.50;;;6.50;;
71648;SDS011;70112;45.624;11.760;2024-02-23T13:45:56;7.30;;;6.10;;
71648;SDS011;70112;45.624;11.760;2024-02-23T13:48:25;10.80;;;6.50;;
71648;SDS011;70112;45.624;11.760;2024-02-23T13:50:50;8.10;;;6.90;;
71648;SDS011;70112;45.624;11.760;2024-02-23T13:53:16;10.40;;;7.50;;
71648;SDS011;70112;45.624;11.760;2024-02-23T13:55:42;16.40;;;9.30;;
71648;SDS011;70112;45.624;11.760;2024-02-23T13:58:09;9.60;;;7.90;;
71648;SDS011;70112;45.624;11.760;2024-02-23T14:00:35;8.10;;;7.10;;
71648;SDS011;70112;45.624;11.760;2024-02-23T14:03:01;7.10;;;6.10;;
71648;SDS011;70112;45.624;11.760;2024-02-23T14:05:27;7.60;;;5.70;;
71648;SDS011;70112;45.624;11.760;2024-02-23T14:07:55;5.70;;;5.10;;
71648;SDS011;70112;45.624;11.760;2024-02-23T14:10:20;5.70;;;4.80;;
71648;SDS011;70112;45.624;11.760;2024-02-23T14:12:46;7.90;;;4.50;;
71648;SDS011;70112;45.624;11.760;2024-02-23T14:15:16;4.80;;;4.30;;
71648;SDS011;70112;45.624;11.760;2024-02-23T14:20:47;5.40;;;4.20;;
71648;SDS011;70112;45.624;11.760;2024-02-23T14:23:21;7.80;;;6.00;;
71648;SDS011;70112;45.624;11.760;2024-02-23T14:25:47;8.30;;;5.90;;
71648;SDS011;70112;45.624;11.760;2024-02-23T14:28:13;7.20;;;6.40;;
71648;SDS011;70112;45.624;11.760;2024-02-23T14:30:39;9.70;;;7.40;;
71648;SDS011;70112;45.624;11.760;2024-02-23T14:33:08;12.60;;;10.10;;
71648;SDS011;70112;45.624;11.760;2024-02-23T14:35:34;14.60;;;11.60;;
71648;SDS011;70112;45.624;11.760;2024-02-23T14:37:59;15.00;;;11.30;;
71648;SDS011;70112;45.624;11.760;2024-02-23T14:40:28;17.00;;;13.90;;
71648;SDS011;70112;45.624;11.760;2024-02-23T14:42:53;13.50;;;10.20;;
71648;SDS011;70112;45.624;11.760;2024-02-23T14:45:30;12.60;;;11.30;;
71648;SDS011;70112;45.624;11.760;2024-02-23T14:48:07;10.20;;;9.00;;
71648;SDS011;70112;45.624;11.760;2024-02-23T14:50:33;8.10;;;6.90;;
71648;SDS011;70112;45.624;11.760;2024-02-23T14:53:02;7.40;;;6.60;;
71648;SDS011;70112;45.624;11.760;2024-02-23T14:55:27;8.60;;;7.70;;
71648;SDS011;70112;45.624;11.760;2024-02-23T14:57:54;10.90;;;9.70;;
71648;SDS011;70112;45.624;11.760;2024-02-23T15:00:22;11.70;;;10.50;;
71648;SDS011;70112;45.624;11.760;2024-02-23T15:03:09;10.90;;;9.70;;
71648;SDS011;70112;45.624;11.760;2024-02-23T15:05:34;6.10;;;5.30;;
71648;SDS011;70112;45.624;11.760;2024-02-23T15:08:00;6.40;;;5.20;;
71648;SDS011;70112;45.624;11.760;2024-02-23T15:10:26;6.60;;;5.10;;
71648;SDS011;70112;45.624;11.760;2024-02-23T15:12:53;5.70;;;5.10;;
71648;SDS011;70112;45.624;11.760;2024-02-23T15:15:19;6.90;;;6.10;;
71648;SDS011;70112;45.624;11.760;2024-02-23T15:17:45;7.00;;;6.10;;
71648;SDS011;70112;45.624;11.760;2024-02-23T15:20:14;7.20;;;6.30;;
71648;SDS011;70112;45.624;11.760;2024-02-23T15:22:40;7.70;;;6.70;;
71648;SDS011;70112;45.624;11.760;2024-02-23T15:25:08;7.00;;;6.30;;
71648;SDS011;70112;45.624;11.760;2024-02-23T15:27:35;13.00;;;11.30;;
71648;SDS011;70112;45.624;11.760;2024-02-23T15:30:15;10.30;;;9.10;;
71648;SDS011;70112;45.624;11.760;2024-02-23T15:33:17;9.70;;;7.60;;